Time;durP1;ratioP1;P1;durP2;ratioP2;P2;SDS_P1;SDS_P2;PMS_P1;PMS_P2;Temp;Humidity;BMP_temperature;BMP_pressure;BME280_temperature;BME280_humidity;BME280_pressure;Samples;Min_cycle;Max_cycle;Signal;HPM_P1;HPM_P2
2023/05/18 00:04:06;;;;;;;13.55;4.85;;;;;;;7.01;57.88;101591.63;10039737;29;20146;-74
2023/05/18 00:09:09;;;;;;;10.43;4.90;;;;;;;6.93;58.10;101588.44;10045532;29;20057;-75
2023/05/18 00:14:12;;;;;;;9.40;4.95;;;;;;;6.86;58.25;101590.53;10041989;29;20045;-74
2023/05/18 00:19:17;;;;;;;8.98;5.03;;;;;;;6.92;58.35;101584.06;10034689;29;20057;-74
2023/05/18 00:24:20;;;;;;;11.27;4.57;;;;;;;6.95;58.57;101586.59;10027756;29;20118;-74
2023/05/18 00:29:22;;;;;;;7.07;4.68;;;;;;;6.84;58.35;101595.06;10025143;29;20034;-75
2023/05/18 00:34:27;;;;;;;12.88;4.88;;;;;;;6.72;58.85;101590.25;10031387;29;20407;-75
2023/05/18 00:39:29;;;;;;;9.98;5.03;;;;;;;6.69;58.83;101588.63;10047165;29;20052;-75
2023/05/18 00:44:32;;;;;;;10.98;5.38;;;;;;;6.69;59.19;101585.97;10037255;29;20046;-74
2023/05/18 00:49:36;;;;;;;13.82;5.38;;;;;;;6.67;59.03;101587.81;10034339;29;20057;-75
2023/05/18 00:54:39;;;;;;;10.35;4.88;;;;;;;6.64;59.06;101590.63;10034842;29;20077;-75
2023/05/18 00:59:42;;;;;;;11.55;6.55;;;;;;;6.58;59.01;101589.13;10035264;29;20062;-75
2023/05/18 01:04:46;;;;;;;8.93;5.60;;;;;;;6.53;59.25;101587.59;10034064;29;20423;-74
2023/05/18 01:09:49;;;;;;;11.50;6.20;;;;;;;6.53;59.33;101587.59;10037803;29;20061;-75
2023/05/18 01:15:00;;;;;;;11.80;5.80;;;;;;;6.44;59.54;101587.97;10034901;29;20057;-74
2023/05/18 01:20:26;;;;;;;13.55;5.60;;;;;;;6.40;59.72;101587.25;10035656;29;20054;-75
2023/05/18 01:25:39;;;;;;;11.32;5.90;;;;;;;6.31;59.93;101596.56;10034214;29;20069;-73
2023/05/18 01:30:44;;;;;;;13.48;5.88;;;;;;;6.28;60.34;101586.00;10032450;29;20081;-74
2023/05/18 01:35:47;;;;;;;14.02;6.78;;;;;;;6.29;60.33;101584.22;10033963;29;20190;-74
2023/05/18 01:40:59;;;;;;;16.38;6.72;;;;;;;6.32;60.26;101589.41;10034202;29;20077;-74
2023/05/18 01:46:13;;;;;;;16.30;6.33;;;;;;;6.22;60.36;101583.59;10027447;29;20469;-74
2023/05/18 01:51:21;;;;;;;8.68;6.10;;;;;;;6.14;60.63;101589.28;10040813;29;20052;-74
2023/05/18 01:56:25;;;;;;;13.20;5.93;;;;;;;6.02;60.97;101595.13;10036535;29;20049;-74
2023/05/18 02:01:30;;;;;;;9.85;5.85;;;;;;;6.04;61.18;101589.75;10037772;29;20045;-75
2023/05/18 02:06:33;;;;;;;16.75;6.10;;;;;;;5.97;61.19;101585.59;10035580;29;20049;-74
2023/05/18 02:11:36;;;;;;;10.68;6.50;;;;;;;5.88;61.31;101593.06;10035155;29;20140;-73
2023/05/18 02:16:40;;;;;;;12.27;5.90;;;;;;;5.78;61.73;101593.50;10035314;29;20052;-74
2023/05/18 02:21:43;;;;;;;15.30;6.18;;;;;;;5.61;62.04;101591.53;10033444;29;20132;-74
2023/05/18 02:26:46;;;;;;;16.23;6.47;;;;;;;5.69;62.04;101590.28;10036742;29;20046;-74
2023/05/18 02:31:50;;;;;;;11.15;5.75;;;;;;;5.67;61.73;101592.13;10034051;29;20110;-75
2023/05/18 02:36:56;;;;;;;13.40;6.13;;;;;;;5.77;62.04;101592.63;10033589;29;20106;-75
2023/05/18 02:42:00;;;;;;;9.88;5.22;;;;;;;5.66;61.47;101595.75;10035622;29;20077;-74
2023/05/18 02:47:05;;;;;;;8.77;6.05;;;;;;;5.47;61.52;101600.09;10035451;29;20042;-75
2023/05/18 02:52:08;;;;;;;8.40;5.45;;;;;;;5.42;62.07;101602.06;10034415;29;20053;-75
2023/05/18 02:57:12;;;;;;;9.20;5.32;;;;;;;5.40;62.07;101604.81;10033438;29;20110;-74
2023/05/18 03:02:24;;;;;;;12.05;5.57;;;;;;;5.38;62.17;101608.47;10033197;29;20103;-73
2023/05/18 03:07:27;;;;;;;14.50;6.10;;;;;;;5.36;62.48;101602.31;10035012;29;20510;-74
2023/05/18 03:12:31;;;;;;;11.13;5.72;;;;;;;5.26;62.04;101604.47;10036446;29;20110;-73
2023/05/18 03:17:35;;;;;;;13.05;5.90;;;;;;;5.02;62.53;101611.66;10038611;29;20053;-73
2023/05/18 03:22:38;;;;;;;10.35;6.45;;;;;;;4.78;63.31;101611.59;10042519;29;20057;-73
2023/05/18 03:27:42;;;;;;;12.63;7.47;;;;;;;4.86;63.79;101624.63;10044515;29;20060;-73
2023/05/18 03:32:47;;;;;;;11.90;5.97;;;;;;;4.76;63.77;101621.44;10047328;29;20079;-73
2023/05/18 03:37:51;;;;;;;12.93;6.00;;;;;;;4.74;63.55;101627.75;10045389;29;20057;-74
2023/05/18 03:42:53;;;;;;;15.73;5.53;;;;;;;4.75;63.80;101626.81;10046385;29;20041;-73
2023/05/18 03:47:58;;;;;;;11.13;5.00;;;;;;;4.71;63.73;101619.88;10045232;29;20052;-75
2023/05/18 03:53:01;;;;;;;10.75;5.07;;;;;;;4.72;63.74;101625.16;10044139;29;20136;-75
2023/05/18 03:58:04;;;;;;;13.98;5.78;;;;;;;4.80;63.57;101623.06;10043216;29;20100;-74
2023/05/18 04:03:11;;;;;;;14.38;6.65;;;;;;;4.93;63.20;101628.78;10045512;29;20073;-74
2023/05/18 04:08:14;;;;;;;15.30;6.30;;;;;;;5.00;62.79;101632.13;10043886;29;20053;-75
2023/05/18 04:13:17;;;;;;;10.85;6.50;;;;;;;4.77;63.21;101636.50;10043013;29;20054;-73
2023/05/18 04:18:21;;;;;;;11.30;5.00;;;;;;;4.80;63.37;101632.81;10041628;29;20635;-73
2023/05/18 04:23:24;;;;;;;12.63;5.70;;;;;;;4.91;63.67;101638.66;10042484;29;20049;-75
2023/05/18 04:28:27;;;;;;;10.35;5.30;;;;;;;5.08;63.07;101645.16;10042018;29;20580;-73
2023/05/18 04:33:32;;;;;;;16.20;5.20;;;;;;;4.91;62.90;101638.66;10039962;29;20046;-74
2023/05/18 04:38:36;;;;;;;14.18;5.00;;;;;;;4.77;63.14;101647.16;10032738;29;20060;-74
2023/05/18 04:43:40;;;;;;;13.02;4.50;;;;;;;4.77;63.58;101644.50;10032665;29;20057;-74
2023/05/18 04:48:48;;;;;;;6.28;4.15;;;;;;;4.60;64.20;101642.41;10038300;29;20514;-74
2023/05/18 04:53:51;;;;;;;11.18;5.13;;;;;;;4.87;64.06;101641.47;10041686;29;20045;-73
2023/05/18 04:58:58;;;;;;;11.90;5.60;;;;;;;4.59;64.93;101640.69;10041839;29;20147;-74
2023/05/18 05:04:05;;;;;;;12.77;6.22;;;;;;;4.81;65.43;101651.41;10025807;29;20733;-74
2023/05/18 05:09:08;;;;;;;10.95;6.50;;;;;;;5.10;65.06;101645.94;10007194;29;20049;-74
2023/05/18 05:14:13;;;;;;;19.60;7.13;;;;;;;5.14;65.34;101643.13;10002644;29;20925;-74
2023/05/18 05:19:17;;;;;;;17.60;7.35;;;;;;;5.19;65.85;101650.94;10004857;29;20045;-74
2023/05/18 05:24:20;;;;;;;12.90;6.38;;;;;;;5.45;65.23;101658.78;10004541;29;20045;-73
2023/05/18 05:29:25;;;;;;;9.57;6.88;;;;;;;5.84;65.28;101642.13;10002974;29;20260;-73
2023/05/18 05:34:30;;;;;;;11.40;4.97;;;;;;;6.32;63.65;101651.66;10005784;29;20060;-73
2023/05/18 05:39:34;;;;;;;11.63;5.03;;;;;;;6.69;61.91;101655.38;10004862;29;20058;-74
2023/05/18 05:44:38;;;;;;;9.57;5.30;;;;;;;6.81;60.50;101657.50;10004524;29;20053;-74
2023/05/18 05:49:42;;;;;;;13.32;4.38;;;;;;;7.42;61.64;101660.97;10002882;29;20642;-73
2023/05/18 05:54:45;;;;;;;9.50;4.20;;;;;;;7.89;60.06;101653.31;10000975;29;20060;-75
2023/05/18 05:59:49;;;;;;;9.70;3.00;;;;;;;8.41;58.65;101660.50;10000890;29;20054;-75
2023/05/18 06:04:54;;;;;;;8.38;3.38;;;;;;;8.70;56.51;101660.84;10018840;29;20059;-74
2023/05/18 06:09:57;;;;;;;11.95;3.03;;;;;;;8.77;55.41;101664.91;10001353;29;20104;-74
2023/05/18 06:15:00;;;;;;;13.25;3.00;;;;;;;9.04;54.97;101657.19;9999484;29;20083;-74
2023/05/18 06:20:06;;;;;;;7.97;2.60;;;;;;;9.29;53.06;101670.97;9998350;29;20079;-74
2023/05/18 06:25:10;;;;;;;12.45;3.63;;;;;;;9.42;52.32;101668.50;10001808;29;20236;-74
2023/05/18 06:30:24;;;;;;;9.95;2.30;;;;;;;9.47;51.25;101669.09;10001123;29;20049;-74
2023/05/18 06:35:40;;;;;;;8.05;2.30;;;;;;;9.68;51.10;101677.78;10002295;29;20468;-75
2023/05/18 06:40:43;;;;;;;9.32;2.15;;;;;;;9.74;50.74;101668.50;9999452;29;20054;-74
2023/05/18 06:45:46;;;;;;;7.22;2.92;;;;;;;9.76;50.77;101685.38;9994845;29;20113;-74
2023/05/18 06:51:09;;;;;;;5.95;2.78;;;;;;;9.77;49.77;101687.13;9992959;29;20049;-74
2023/05/18 06:56:12;;;;;;;7.63;2.83;;;;;;;9.88;50.21;101687.41;9998514;29;20248;-76
2023/05/18 07:01:18;;;;;;;7.10;2.13;;;;;;;9.97;48.85;101685.13;10014626;29;20459;-75
2023/05/18 07:06:22;;;;;;;14.25;2.92;;;;;;;10.22;48.68;101688.09;10001760;29;20057;-74
2023/05/18 07:11:26;;;;;;;14.65;2.50;;;;;;;10.47;48.31;101692.03;10005208;29;20056;-74
2023/05/18 07:16:31;;;;;;;10.52;2.28;;;;;;;10.77;47.36;101689.28;10004545;29;20058;-75
2023/05/18 07:21:36;;;;;;;7.63;2.80;;;;;;;10.96;47.54;101678.28;10003623;29;20395;-75
2023/05/18 07:26:39;;;;;;;15.10;3.03;;;;;;;11.32;46.88;101690.41;10007100;29;21792;-75
2023/05/18 07:31:43;;;;;;;10.13;2.28;;;;;;;12.13;45.48;101696.75;10003899;29;20054;-74
2023/05/18 07:36:47;;;;;;;7.93;2.33;;;;;;;13.11;43.89;101685.56;10006821;29;20744;-74
2023/05/18 07:41:50;;;;;;;11.38;2.90;;;;;;;13.71;41.80;101684.81;10009848;29;20050;-76
2023/05/18 07:46:53;;;;;;;11.65;2.63;;;;;;;13.83;41.37;101683.06;10016323;29;20049;-76
2023/05/18 07:51:59;;;;;;;10.60;2.88;;;;;;;13.81;41.21;101685.88;10006785;29;20064;-76
2023/05/18 07:57:03;;;;;;;12.57;3.13;;;;;;;14.00;41.66;101679.09;10004148;29;20061;-75
2023/05/18 08:02:06;;;;;;;15.05;2.80;;;;;;;13.80;41.46;101675.19;10000876;29;20054;-74
2023/05/18 08:07:11;;;;;;;7.90;2.75;;;;;;;13.26;42.08;101679.94;10007865;29;20069;-73
2023/05/18 08:12:14;;;;;;;9.10;3.20;;;;;;;13.96;41.08;101675.78;10012092;29;20060;-74
2023/05/18 08:17:18;;;;;;;10.25;2.95;;;;;;;14.46;41.37;101676.47;10014696;29;20053;-73
2023/05/18 08:22:22;;;;;;;7.38;2.97;;;;;;;15.39;39.46;101675.50;10014572;29;20045;-74
2023/05/18 08:27:25;;;;;;;8.55;2.58;;;;;;;14.76;38.53;101675.09;10013223;29;20126;-74
2023/05/18 08:32:28;;;;;;;13.23;3.60;;;;;;;15.07;39.40;101662.69;10023803;29;20045;-75
2023/05/18 08:37:32;;;;;;;7.13;2.50;;;;;;;15.34;39.23;101656.91;10007457;29;20594;-74
2023/05/18 08:42:39;;;;;;;7.07;2.80;;;;;;;15.56;39.62;101656.03;10006435;29;20056;-74
2023/05/18 08:47:56;;;;;;;7.60;2.30;;;;;;;15.29;39.88;101663.66;10001164;29;20109;-74
2023/05/18 08:53:04;;;;;;;7.43;2.42;;;;;;;15.29;38.49;101652.84;9992288;29;20112;-73
2023/05/18 08:58:09;;;;;;;8.80;3.08;;;;;;;15.26;39.32;101651.22;10007768;29;20057;-75
2023/05/18 09:03:13;;;;;;;10.60;2.95;;;;;;;15.56;39.67;101650.59;9994656;29;20054;-75
2023/05/18 09:08:18;;;;;;;9.95;3.10;;;;;;;15.97;37.78;101649.00;9998486;29;20521;-74
2023/05/18 09:13:21;;;;;;;7.45;3.00;;;;;;;16.30;38.33;101641.75;10000337;29;20053;-74
2023/05/18 09:18:24;;;;;;;9.40;3.10;;;;;;;16.64;38.01;101636.97;9996333;29;20461;-75
2023/05/18 09:23:32;;;;;;;8.88;3.58;;;;;;;16.76;37.12;101635.91;9997534;29;20798;-74
2023/05/18 09:28:37;;;;;;;7.80;2.85;;;;;;;17.03;37.18;101637.16;10004153;29;20129;-74
2023/05/18 09:33:40;;;;;;;6.78;3.17;;;;;;;16.92;36.92;101629.13;10006195;29;20873;-74
2023/05/18 09:38:46;;;;;;;13.98;3.70;;;;;;;17.26;37.01;101627.00;9999217;29;20513;-73
2023/05/18 09:43:49;;;;;;;7.30;2.70;;;;;;;17.41;36.07;101627.47;10005105;29;20065;-74
2023/05/18 09:48:54;;;;;;;8.73;3.08;;;;;;;18.00;35.14;101621.16;10012593;29;20053;-74
2023/05/18 09:53:58;;;;;;;7.55;2.85;;;;;;;16.44;37.40;101619.72;10011664;29;20437;-74
2023/05/18 09:59:09;;;;;;;6.20;2.70;;;;;;;16.92;38.15;101619.16;10006850;29;20056;-73
2023/05/18 10:04:12;;;;;;;9.65;3.28;;;;;;;17.44;36.48;101616.31;10005282;29;20549;-74
2023/05/18 10:09:17;;;;;;;9.98;4.28;;;;;;;17.68;35.51;101613.22;9999141;29;20069;-73
2023/05/18 10:14:24;;;;;;;8.40;4.70;;;;;;;18.48;36.41;101614.78;10001315;29;20732;-75
2023/05/18 10:19:28;;;;;;;10.52;3.22;;;;;;;18.88;35.51;101604.69;9998021;29;20057;-74
2023/05/18 10:24:36;;;;;;;9.57;3.72;;;;;;;19.40;34.94;101608.56;9997057;29;20060;-74
2023/05/18 10:29:39;;;;;;;8.60;3.08;;;;;;;19.52;34.35;101611.94;9997478;29;20057;-74
2023/05/18 10:34:44;;;;;;;10.35;3.50;;;;;;;18.14;34.77;101607.13;10016978;29;20072;-72
2023/05/18 10:39:50;;;;;;;9.23;3.80;;;;;;;17.04;37.06;101609.91;9996892;29;20056;-73
2023/05/18 10:44:54;;;;;;;5.28;2.92;;;;;;;18.03;36.41;101599.13;9999545;29;20056;-74
2023/05/18 10:49:59;;;;;;;7.93;3.40;;;;;;;19.10;35.03;101595.28;10006038;29;20060;-73
2023/05/18 10:55:03;;;;;;;10.07;3.33;;;;;;;20.02;32.62;101589.66;9999767;29;20062;-74
2023/05/18 11:00:09;;;;;;;6.97;2.88;;;;;;;18.63;33.85;101582.53;9996456;29;20053;-72
2023/05/18 11:05:12;;;;;;;15.75;4.45;;;;;;;19.57;34.89;101585.13;10008497;29;20053;-74
2023/05/18 11:10:17;;;;;;;8.77;3.28;;;;;;;20.07;32.96;101572.78;9992315;29;20175;-74
2023/05/18 11:15:19;;;;;;;8.88;3.17;;;;;;;20.43;33.19;101579.09;10002320;29;20053;-75
2023/05/18 11:20:25;;;;;;;6.93;3.05;;;;;;;20.62;31.85;101579.84;10012671;29;20058;-75
2023/05/18 11:25:42;;;;;;;7.45;3.10;;;;;;;19.72;32.66;101566.38;10004871;29;20060;-74
2023/05/18 11:30:50;;;;;;;10.85;2.95;;;;;;;20.63;33.02;101563.31;10000695;29;20153;-76
2023/05/18 11:36:12;;;;;;;6.25;3.08;;;;;;;21.27;31.11;101558.31;10004025;29;20050;-74
2023/05/18 11:41:31;;;;;;;8.20;3.20;;;;;;;20.66;31.75;101551.22;9991774;29;20631;-74
2023/05/18 11:46:34;;;;;;;8.57;2.75;;;;;;;21.18;31.77;101556.59;9992555;29;20057;-74
2023/05/18 11:51:55;;;;;;;8.75;3.88;;;;;;;20.05;33.61;101556.59;9999348;29;20122;-75
2023/05/18 11:57:02;;;;;;;12.15;4.93;;;;;;;20.48;32.14;101543.94;9998635;29;20061;-73
2023/05/18 12:02:05;;;;;;;11.18;4.03;;;;;;;21.91;31.31;101542.19;10005091;29;20053;-75
2023/05/18 12:07:09;;;;;;;7.65;2.72;;;;;;;20.75;32.00;101531.97;10001110;29;20118;-74
2023/05/18 12:12:18;;;;;;;9.70;3.03;;;;;;;21.32;31.89;101545.03;10001876;29;20053;-74
2023/05/18 12:17:23;;;;;;;9.18;3.38;;;;;;;22.40;31.12;101530.34;9998941;29;20054;-74
2023/05/18 12:22:26;;;;;;;7.97;3.10;;;;;;;22.09;29.51;101533.81;9996344;29;20054;-74
2023/05/18 12:27:31;;;;;;;12.25;3.03;;;;;;;21.49;32.17;101528.66;9999066;29;20417;-74
2023/05/18 12:32:34;;;;;;;5.63;2.63;;;;;;;21.88;31.12;101520.66;10002623;29;20145;-75
2023/05/18 12:37:41;;;;;;;11.68;3.08;;;;;;;21.89;30.72;101516.94;10004270;29;20061;-74
2023/05/18 12:42:58;;;;;;;10.40;3.28;;;;;;;22.54;30.28;101513.22;10006858;29;20061;-72
2023/05/18 12:48:04;;;;;;;6.47;2.50;;;;;;;22.56;30.08;101505.69;10003737;29;20045;-74
2023/05/18 12:53:08;;;;;;;7.82;2.97;;;;;;;23.05;30.18;101507.38;10001945;29;20049;-74
2023/05/18 12:58:15;;;;;;;10.32;2.72;;;;;;;22.97;29.79;101511.00;10006376;29;20053;-75
2023/05/18 13:03:20;;;;;;;8.15;2.83;;;;;;;23.07;28.98;101505.31;10010225;29;20057;-75
2023/05/18 13:08:24;;;;;;;7.25;2.63;;;;;;;23.11;27.43;101495.72;10007199;29;20056;-74
2023/05/18 13:13:28;;;;;;;11.80;2.60;;;;;;;22.61;29.78;101496.97;10003283;29;20053;-74
2023/05/18 13:18:31;;;;;;;5.10;2.83;;;;;;;21.72;30.80;101496.91;10008902;29;20049;-74
2023/05/18 13:23:34;;;;;;;10.02;3.03;;;;;;;22.59;30.56;101482.59;10002804;29;20171;-74
2023/05/18 13:28:38;;;;;;;6.47;2.78;;;;;;;23.29;29.65;101476.25;10001421;29;20141;-74
2023/05/18 13:33:41;;;;;;;7.40;3.85;;;;;;;21.24;29.25;101484.88;9998895;29;20053;-74
2023/05/18 13:38:44;;;;;;;7.28;2.78;;;;;;;20.14;31.04;101475.69;10000360;29;20614;-74
2023/05/18 13:43:48;;;;;;;14.38;3.58;;;;;;;20.98;29.67;101465.81;10003623;29;20065;-74
2023/05/18 13:48:51;;;;;;;10.10;2.28;;;;;;;22.20;30.83;101461.47;10009882;29;20502;-75
2023/05/18 13:53:54;;;;;;;7.38;3.05;;;;;;;23.06;29.37;101457.00;10033262;29;20106;-74
2023/05/18 13:58:58;;;;;;;8.80;3.65;;;;;;;22.40;29.36;101460.03;10031721;29;20048;-73
2023/05/18 14:04:01;;;;;;;8.35;2.92;;;;;;;22.94;29.51;101445.59;10030925;29;20045;-74
2023/05/18 14:09:04;;;;;;;8.32;3.33;;;;;;;22.92;28.89;101442.19;10032043;29;20046;-73
2023/05/18 14:14:08;;;;;;;10.73;3.22;;;;;;;22.52;29.65;101436.75;10031409;29;20049;-73
2023/05/18 14:19:11;;;;;;;9.60;3.15;;;;;;;22.27;29.46;101429.63;10031842;29;20037;-74
2023/05/18 14:24:14;;;;;;;8.43;3.20;;;;;;;22.64;29.01;101423.50;10020363;29;20062;-73
2023/05/18 14:29:19;;;;;;;9.43;3.00;;;;;;;22.70;29.73;101421.94;10002911;29;20049;-74
2023/05/18 14:34:21;;;;;;;9.20;3.10;;;;;;;23.18;29.49;101415.34;10001246;29;20049;-74
2023/05/18 14:39:24;;;;;;;7.07;2.80;;;;;;;22.86;29.07;101423.75;10002077;29;20532;-74
2023/05/18 14:44:29;;;;;;;9.25;2.90;;;;;;;22.64;29.97;101420.78;10000644;29;20077;-74
2023/05/18 14:49:31;;;;;;;8.40;2.58;;;;;;;23.19;29.26;101418.91;10000022;29;20161;-75
2023/05/18 14:54:35;;;;;;;7.82;2.83;;;;;;;23.07;29.57;101415.72;10002063;29;20473;-73
2023/05/18 14:59:39;;;;;;;12.45;3.28;;;;;;;23.17;28.58;101416.34;9999627;29;20464;-76
2023/05/18 15:04:42;;;;;;;10.73;3.80;;;;;;;23.24;28.99;101404.69;10013032;29;20061;-75
2023/05/18 15:09:45;;;;;;;10.43;3.38;;;;;;;22.56;29.40;101404.38;9998485;29;20065;-75
2023/05/18 15:14:49;;;;;;;10.48;3.00;;;;;;;23.02;29.28;101398.13;9989842;29;20061;-74
2023/05/18 15:19:52;;;;;;;7.60;3.05;;;;;;;22.67;29.48;101406.72;9989139;29;20125;-73
2023/05/18 15:24:55;;;;;;;6.95;2.50;;;;;;;22.74;29.60;101406.88;9993629;29;20058;-74
2023/05/18 15:30:00;;;;;;;6.38;2.92;;;;;;;22.31;30.28;101399.00;10025807;29;20430;-74
2023/05/18 15:35:03;;;;;;;6.35;3.25;;;;;;;22.60;29.94;101394.78;10004494;29;20063;-74
2023/05/18 15:40:07;;;;;;;6.60;2.58;;;;;;;22.88;29.75;101391.56;10003132;29;20045;-73
2023/05/18 15:45:12;;;;;;;8.07;3.40;;;;;;;22.25;29.99;101383.28;10020053;29;20065;-75
2023/05/18 15:50:15;;;;;;;9.10;3.40;;;;;;;22.21;30.12;101387.38;10004301;29;20124;-75
2023/05/18 15:55:17;;;;;;;8.60;2.90;;;;;;;22.85;29.34;101384.53;10001411;29;20053;-75
2023/05/18 16:00:22;;;;;;;7.85;3.00;;;;;;;22.72;29.43;101381.53;10004305;29;20059;-75
2023/05/18 16:05:25;;;;;;;9.27;3.70;;;;;;;22.07;29.88;101388.97;10004310;29;20067;-74
2023/05/18 16:10:28;;;;;;;5.72;2.20;;;;;;;22.17;29.70;101383.31;10003672;29;20064;-74
2023/05/18 16:15:36;;;;;;;13.48;3.13;;;;;;;22.24;29.81;101377.97;10005279;29;20049;-73
2023/05/18 16:20:39;;;;;;;5.75;2.80;;;;;;;21.47;29.91;101377.63;10001803;29;20049;-73
2023/05/18 16:25:42;;;;;;;12.77;3.20;;;;;;;22.17;29.69;101372.38;10004448;29;20110;-75
2023/05/18 16:30:46;;;;;;;8.75;2.90;;;;;;;22.75;28.60;101373.81;10006724;29;20070;-75
2023/05/18 16:35:49;;;;;;;8.55;3.22;;;;;;;22.48;29.10;101377.03;10003751;29;20449;-75
2023/05/18 16:40:52;;;;;;;7.40;3.35;;;;;;;22.32;29.25;101372.47;9999311;29;20057;-75
2023/05/18 16:45:56;;;;;;;9.02;2.85;;;;;;;23.92;27.86;101370.81;10003679;29;20053;-75
2023/05/18 16:50:59;;;;;;;9.52;4.15;;;;;;;27.07;24.59;101363.91;9964147;29;1094782;-75
2023/05/18 16:56:03;;;;;;;5.57;2.70;;;;;;;29.01;22.35;101361.50;10003625;29;20129;-74
2023/05/18 17:01:08;;;;;;;5.63;2.53;;;;;;;30.20;21.44;101365.13;10005071;29;20057;-74
2023/05/18 17:06:28;;;;;;;9.13;3.28;;;;;;;31.14;20.78;101354.44;10005899;29;21640;-73
2023/05/18 17:11:31;;;;;;;6.05;3.10;;;;;;;31.28;20.38;101355.91;10001871;29;20053;-73
2023/05/18 17:16:39;;;;;;;8.65;2.83;;;;;;;30.97;20.64;101354.28;10003582;29;20053;-73
2023/05/18 17:21:42;;;;;;;12.55;3.35;;;;;;;31.41;20.24;101365.13;9995223;29;20065;-73
2023/05/18 17:26:45;;;;;;;6.93;2.45;;;;;;;31.73;20.36;101369.25;9992184;29;20510;-74
2023/05/18 17:31:49;;;;;;;8.75;3.08;;;;;;;30.25;21.08;101370.81;9993780;29;20405;-74
2023/05/18 17:36:53;;;;;;;5.95;2.58;;;;;;;30.24;21.40;101364.41;9996896;29;20057;-75
2023/05/18 17:41:58;;;;;;;10.40;2.70;;;;;;;28.92;21.87;101364.53;10008335;29;20059;-76
2023/05/18 17:47:03;;;;;;;10.48;3.67;;;;;;;24.17;26.65;101370.50;10022262;29;20053;-75
2023/05/18 17:52:06;;;;;;;6.88;3.13;;;;;;;23.11;27.48;101361.44;10009697;29;20060;-75
2023/05/18 17:57:09;;;;;;;9.27;3.25;;;;;;;20.43;30.94;101366.22;10010546;29;20045;-74
2023/05/18 18:02:14;;;;;;;9.13;3.30;;;;;;;18.34;34.11;101374.00;10009585;29;20060;-74
2023/05/18 18:07:17;;;;;;;10.40;3.20;;;;;;;17.50;35.53;101376.75;10009423;29;20064;-74
2023/05/18 18:12:19;;;;;;;10.48;3.17;;;;;;;17.07;36.13;101374.47;10004150;29;20053;-74
2023/05/18 18:17:24;;;;;;;6.88;2.90;;;;;;;16.42;36.64;101384.91;10011801;29;20265;-74
2023/05/18 18:22:27;;;;;;;5.97;3.33;;;;;;;15.91;36.40;101387.56;10014854;29;20510;-74
2023/05/18 18:27:30;;;;;;;9.02;2.60;;;;;;;15.74;37.13;101392.72;10007662;29;20046;-74
2023/05/18 18:32:34;;;;;;;8.57;2.53;;;;;;;15.66;37.39;101401.50;10004829;29;20355;-74
2023/05/18 18:37:37;;;;;;;6.57;3.13;;;;;;;15.60;37.51;101396.63;9999148;29;20173;-75
2023/05/18 18:42:40;;;;;;;4.35;2.67;;;;;;;15.47;37.69;101403.13;10004823;29;20054;-74
2023/05/18 18:47:44;;;;;;;6.10;2.50;;;;;;;15.23;38.38;101402.47;10001541;29;20061;-74
2023/05/18 18:52:47;;;;;;;9.05;2.33;;;;;;;15.05;38.64;101411.13;10001735;29;20144;-74
2023/05/18 18:57:51;;;;;;;6.88;2.42;;;;;;;14.89;38.90;101412.53;9999849;29;20049;-74
2023/05/18 19:02:56;;;;;;;9.00;2.33;;;;;;;14.76;39.59;101408.16;10003007;29;20189;-75
2023/05/18 19:08:00;;;;;;;10.18;2.45;;;;;;;14.69;39.75;101422.31;10014383;29;20100;-74
2023/05/18 19:13:04;;;;;;;7.05;2.90;;;;;;;14.53;40.19;101431.66;10015456;29;20706;-75
2023/05/18 19:18:09;;;;;;;6.70;2.47;;;;;;;14.37;40.54;101426.63;10011170;29;20116;-76
2023/05/18 19:23:12;;;;;;;6.05;2.75;;;;;;;14.16;40.94;101433.75;10008235;29;21168;-75
2023/05/18 19:28:15;;;;;;;7.40;2.40;;;;;;;14.03;41.58;101438.41;10010261;29;21253;-74
2023/05/18 19:33:19;;;;;;;9.13;2.70;;;;;;;13.90;41.92;101443.91;10008233;29;20506;-73
2023/05/18 19:38:22;;;;;;;11.35;3.53;;;;;;;13.81;42.02;101448.19;10002838;29;20630;-74
2023/05/18 19:43:25;;;;;;;5.90;2.50;;;;;;;13.71;42.65;101447.19;10002507;29;20061;-75
2023/05/18 19:48:30;;;;;;;5.45;2.80;;;;;;;13.67;42.81;101453.81;10001311;29;20054;-73
2023/05/18 19:53:33;;;;;;;6.95;2.40;;;;;;;13.60;43.14;101456.13;10009652;29;20077;-75
2023/05/18 19:58:36;;;;;;;5.85;2.55;;;;;;;13.55;43.89;101452.94;10010587;29;20524;-75
2023/05/18 20:03:42;;;;;;;4.22;2.58;;;;;;;13.46;44.61;101450.91;10010220;29;20529;-75
2023/05/18 20:08:45;;;;;;;8.52;3.10;;;;;;;13.37;45.31;101463.28;10007614;29;20050;-76
2023/05/18 20:13:48;;;;;;;7.72;2.60;;;;;;;13.20;45.52;101461.81;10005613;29;20533;-75
2023/05/18 20:18:52;;;;;;;6.40;2.88;;;;;;;13.00;46.50;101465.13;10007317;29;20057;-75
2023/05/18 20:23:55;;;;;;;6.05;3.10;;;;;;;12.89;47.06;101465.06;10010925;29;21143;-75
2023/05/18 20:28:58;;;;;;;7.30;3.47;;;;;;;12.74;47.43;101473.31;10009688;29;20069;-75
2023/05/18 20:34:03;;;;;;;6.80;3.45;;;;;;;12.57;47.42;101481.78;10012407;29;20046;-75
2023/05/18 20:39:06;;;;;;;5.82;2.85;;;;;;;12.42;47.96;101482.88;10012281;29;20056;-75
2023/05/18 20:44:09;;;;;;;7.50;3.38;;;;;;;12.35;47.70;101483.31;10010111;29;20046;-74
2023/05/18 20:49:14;;;;;;;7.13;3.00;;;;;;;12.33;47.59;101490.63;10008442;29;20057;-74
2023/05/18 20:54:17;;;;;;;11.70;3.25;;;;;;;12.15;47.76;101486.53;10009025;29;20054;-75
2023/05/18 20:59:20;;;;;;;6.15;2.92;;;;;;;12.21;48.00;101483.41;10006117;29;20080;-73
2023/05/18 21:04:24;;;;;;;10.07;3.00;;;;;;;12.16;47.68;101489.09;10009716;29;20065;-74
2023/05/18 21:09:30;;;;;;;12.40;3.75;;;;;;;12.19;47.63;101490.72;10023584;29;20066;-74
2023/05/18 21:14:32;;;;;;;5.78;3.30;;;;;;;12.12;47.60;101487.63;10041526;29;20034;-73
2023/05/18 21:19:37;;;;;;;9.82;3.63;;;;;;;12.06;47.79;101484.47;10047669;29;20526;-74
2023/05/18 21:24:40;;;;;;;7.40;3.95;;;;;;;11.99;47.75;101491.28;10045482;29;20512;-74
2023/05/18 21:29:43;;;;;;;8.13;3.83;;;;;;;11.88;47.83;101487.50;10042502;29;20049;-74
2023/05/18 21:34:47;;;;;;;11.63;4.18;;;;;;;11.81;47.81;101480.78;10044127;29;20060;-74
2023/05/18 21:39:50;;;;;;;8.18;3.55;;;;;;;11.77;47.99;101490.06;10043732;29;20053;-74
2023/05/18 21:44:53;;;;;;;8.75;3.80;;;;;;;11.73;48.36;101488.53;10037885;29;20102;-74
2023/05/18 21:49:57;;;;;;;7.45;3.65;;;;;;;11.75;48.53;101493.81;10029582;29;20129;-74
2023/05/18 21:55:00;;;;;;;8.85;3.30;;;;;;;11.68;48.51;101493.38;10033329;29;20601;-74
2023/05/18 22:00:05;;;;;;;6.28;3.83;;;;;;;11.55;49.40;101487.13;10035808;29;20060;-75
2023/05/18 22:05:15;;;;;;;13.45;4.05;;;;;;;11.50;49.78;101490.09;10037293;29;20046;-74
2023/05/18 22:10:18;;;;;;;7.90;3.42;;;;;;;11.47;50.16;101488.47;10039453;29;20502;-74
2023/05/18 22:15:22;;;;;;;10.20;3.38;;;;;;;11.32;50.42;101491.34;10050942;29;20046;-74
2023/05/18 22:20:27;;;;;;;10.15;3.88;;;;;;;11.21;50.94;101489.34;10041381;29;20057;-74
2023/05/18 22:25:31;;;;;;;5.43;3.42;;;;;;;11.09;51.17;101485.63;10041183;29;20502;-74
2023/05/18 22:30:34;;;;;;;7.03;4.05;;;;;;;10.98;51.82;101482.78;10039685;29;20122;-74
2023/05/18 22:35:38;;;;;;;6.82;3.25;;;;;;;10.95;52.00;101482.97;10034563;29;20054;-74
2023/05/18 22:40:41;;;;;;;9.00;4.07;;;;;;;10.66;52.09;101480.34;10041146;29;20671;-74
2023/05/18 22:45:44;;;;;;;6.22;3.70;;;;;;;10.59;52.65;101481.72;10039308;29;20458;-74
2023/05/18 22:50:48;;;;;;;8.95;4.07;;;;;;;10.53;52.69;101472.22;10041222;29;20049;-73
2023/05/18 22:55:51;;;;;;;9.18;3.97;;;;;;;10.50;52.81;101471.53;10040976;29;20521;-73
2023/05/18 23:00:54;;;;;;;8.32;4.28;;;;;;;10.45;53.20;101468.25;10039643;29;20121;-74
2023/05/18 23:06:01;;;;;;;9.38;3.67;;;;;;;10.37;53.13;101466.94;10039387;29;20065;-74
2023/05/18 23:11:04;;;;;;;6.65;4.43;;;;;;;10.31;53.22;101469.13;10041087;29;20077;-73
2023/05/18 23:16:09;;;;;;;7.57;3.30;;;;;;;10.43;53.34;101478.28;10037766;29;20077;-74
2023/05/18 23:21:13;;;;;;;11.88;4.28;;;;;;;10.38;53.18;101474.03;10046105;29;20046;-75